Charter Quote
Worldwide +44-20-3874-8091 Call
Select Language Lang
SAFETY RELIABILITY EXPERIENCE

Davison Aaf Airport (KDAA) - Jet Charter Services

AIRPORT INFORMATION
ICAOKDAA
IATADAA
LOCATIONFort Belvoir, VA, United States
FACILITY TYPEAIRPORT
Runway Length (ft) Width (ft) Surface Type Elevation (ft)
14/32 5618 74 ASPH 73.96721

At Paramount Business Jets you can hire chartered private jets to and from Davison Aaf Airport with as little as 4 hours of notice. All flights booked via Paramount Business Jets are operated by certified direct air carriers that meet and exceed the FAA part 135 and 121 protocol or a foreign equivalent safety authority. Furthermore, Paramount Business Jets subscribes to ARGUS for their third party safety checks of operators, aircraft, and crews prior each and every flight to and from Davison Aaf Airport and worldwide.

  • Quote a trip using Davison Aaf Airport or call us 24/7 - 365 days a year at +44-20-3874-8091.
Questions? Call +44-20-3874-8091

METAR Weather Data at Davison Aaf Airport, KDAA, DAA

STATIONKDAA
OBSERVEDWed Jan 23, 19:56 UTC
NOWWed Jan 23, 21:46 UTC
AGE1:50 hr ago
WINDS at 8 mph
VISIBILITY10 miles
CLOUDSpartly cloudy
TEMP50°F (10°C)
WIND CHILL47°F (8°C)
DEWPT36°F (2°C)
HUMIDITY58%
BAROMETER1019 hPa (30.10 in Hg)
METARKDAA 231956Z AUTO 19007KT 10SM FEW039 FEW050 10/02 A3010 RMK AO2 SLP197 T01000021

Call us on +44-20-3874-8091 (24 Hours) to Hire a Private Jet or Get a Quick Quote.

Find Airports Near any Location

Processing
...